WXM80 ListenWXM80 Stop

You find our weather info also at:

UK Metoffice

WeatherCloud

Weather Underground

Northeastern Weather Network

AWEKAS

Citizen Weather Observer Program (CWOP)

HAMweather, WeatherForYou, PWS Weather


Weather Underground History page Text

Daily Summary for February 4, 2017 Units:  Both    English   Metric
« Previous Day
Next Day »
Daily Weekly Monthly Yearly Custom
  High: Low: Average:
Temperature: 33.9 °F /  1.1 °C 22.8 °F /  -5.1 °C 28.5 °F /  -1.9 °C
Dew Point: 16.2 °F /  -8.8 °C 10.3 °F /  -12.1 °C 12.8 °F /  -10.7 °C
Humidity: 63 % 41 % 52 %
Wind Speed: 12.3 mph /  19.8 km/h - 5.3 mph /  8.5 km/h
Wind Gust: 21.9 mph /  35.2 km/h - -
Wind:- - West
Pressure: 30.35 in /  1027.7 hPa 30.18 in /  1021.9 hPa -
Precipitation: 0.00 in /  0 mm    
Historical Graphs
 
 
Tabular Data for February 4, 2017
Time Temperature Dew Point Pressure Wind Wind Speed Wind Gust Humidity Rainfall Rate (Hourly)
00:01 27.6 °F /  -2.4 °C 12.7 °F /  -10.7 °C 30.18 in /  1021.9 hPa North 8.0 mph /  12.9 km/h 12.7 mph /  20.4 km/h 53 % 0.00 in /  0 mm
00:06 27.4 °F /  -2.6 °C 12.9 °F /  -10.6 °C 30.18 in /  1021.9 hPa NW 9.1 mph /  14.6 km/h 21.9 mph /  35.2 km/h 54 % 0.00 in /  0 mm
00:11 27.3 °F /  -2.6 °C 12.8 °F /  -10.7 °C 30.18 in /  1021.9 hPa WNW 8.1 mph /  13 km/h 15.0 mph /  24.1 km/h 54 % 0.00 in /  0 mm
00:16 27.1 °F /  -2.7 °C 13.5 °F /  -10.3 °C 30.18 in /  1021.9 hPa NW 8.5 mph /  13.7 km/h 16.1 mph /  25.9 km/h 56 % 0.00 in /  0 mm
00:21 27.0 °F /  -2.8 °C 13.0 °F /  -10.6 °C 30.18 in /  1021.9 hPa North 3.8 mph /  6.1 km/h 16.1 mph /  25.9 km/h 55 % 0.00 in /  0 mm
00:26 26.9 °F /  -2.8 °C 12.5 °F /  -10.8 °C 30.18 in /  1021.9 hPa WNW 8.7 mph /  14 km/h 20.7 mph /  33.3 km/h 54 % 0.00 in /  0 mm
00:31 26.7 °F /  -2.9 °C 12.3 °F /  -10.9 °C 30.18 in /  1021.9 hPa NW 4.6 mph /  7.4 km/h 11.5 mph /  18.5 km/h 54 % 0.00 in /  0 mm
00:36 26.5 °F /  -3.1 °C 12.1 °F /  -11.1 °C 30.18 in /  1021.9 hPa WNW 9.0 mph /  14.5 km/h 18.4 mph /  29.6 km/h 54 % 0.00 in /  0 mm
00:41 26.3 °F /  -3.2 °C 12.3 °F /  -10.9 °C 30.18 in /  1021.9 hPa West 5.4 mph /  8.7 km/h 12.7 mph /  20.4 km/h 55 % 0.00 in /  0 mm
00:46 26.2 °F /  -3.2 °C 12.2 °F /  -11 °C 30.18 in /  1021.9 hPa NW 7.0 mph /  11.3 km/h 13.8 mph /  22.2 km/h 55 % 0.00 in /  0 mm
00:52 26.0 °F /  -3.3 °C 12.0 °F /  -11.1 °C 30.19 in /  1022.2 hPa NNE 5.1 mph /  8.2 km/h 19.6 mph /  31.5 km/h 55 % 0.00 in /  0 mm
00:57 25.9 °F /  -3.4 °C 11.9 °F /  -11.2 °C 30.19 in /  1022.2 hPa NNW 8.3 mph /  13.4 km/h 15.0 mph /  24.1 km/h 55 % 0.00 in /  0 mm
01:02 25.8 °F /  -3.4 °C 12.6 °F /  -10.8 °C 30.20 in /  1022.6 hPa NNW 5.0 mph /  8 km/h 14.0 mph /  22.5 km/h 57 % 0.00 in /  0 mm
01:07 25.7 °F /  -3.5 °C 12.2 °F /  -11 °C 30.20 in /  1022.6 hPa NW 5.2 mph /  8.4 km/h 11.5 mph /  18.5 km/h 56 % 0.00 in /  0 mm
01:12 25.7 °F /  -3.5 °C 12.2 °F /  -11 °C 30.20 in /  1022.6 hPa NW 4.9 mph /  7.9 km/h 11.5 mph /  18.5 km/h 56 % 0.00 in /  0 mm
01:17 25.6 °F /  -3.6 °C 12.9 °F /  -10.6 °C 30.20 in /  1022.6 hPa West 3.9 mph /  6.3 km/h 8.0 mph /  12.9 km/h 58 % 0.00 in /  0 mm
01:22 25.6 °F /  -3.6 °C 12.9 °F /  -10.6 °C 30.19 in /  1022.2 hPa West 4.7 mph /  7.6 km/h 10.4 mph /  16.7 km/h 58 % 0.00 in /  0 mm
01:27 25.4 °F /  -3.7 °C 11.9 °F /  -11.2 °C 30.19 in /  1022.2 hPa NW 7.2 mph /  11.6 km/h 11.5 mph /  18.5 km/h 56 % 0.00 in /  0 mm
01:32 25.4 °F /  -3.7 °C 11.5 °F /  -11.4 °C 30.20 in /  1022.6 hPa NW 8.9 mph /  14.3 km/h 16.1 mph /  25.9 km/h 55 % 0.00 in /  0 mm
01:37 25.3 °F /  -3.7 °C 12.6 °F /  -10.8 °C 30.20 in /  1022.6 hPa NW 9.6 mph /  15.4 km/h 15.0 mph /  24.1 km/h 58 % 0.00 in /  0 mm
01:42 25.2 °F /  -3.8 °C 11.7 °F /  -11.3 °C 30.19 in /  1022.2 hPa WNW 9.3 mph /  15 km/h 15.0 mph /  24.1 km/h 56 % 0.00 in /  0 mm
01:47 25.2 °F /  -3.8 °C 12.1 °F /  -11.1 °C 30.20 in /  1022.6 hPa NNW 7.6 mph /  12.2 km/h 11.5 mph /  18.5 km/h 57 % 0.00 in /  0 mm
01:52 25.1 °F /  -3.8 °C 11.2 °F /  -11.6 °C 30.20 in /  1022.6 hPa WNW 8.4 mph /  13.5 km/h 17.0 mph /  27.4 km/h 55 % 0.00 in /  0 mm
01:57 25.1 °F /  -3.8 °C 11.6 °F /  -11.3 °C 30.21 in /  1022.9 hPa NW 8.6 mph /  13.8 km/h 15.0 mph /  24.1 km/h 56 % 0.00 in /  0 mm
02:02 25.0 °F /  -3.9 °C 11.5 °F /  -11.4 °C 30.21 in /  1022.9 hPa NNW 7.4 mph /  11.9 km/h 12.7 mph /  20.4 km/h 56 % 0.00 in /  0 mm
02:07 24.9 °F /  -3.9 °C 11.4 °F /  -11.4 °C 30.21 in /  1022.9 hPa NW 8.0 mph /  12.9 km/h 12.0 mph /  19.3 km/h 56 % 0.00 in /  0 mm
02:12 24.9 °F /  -3.9 °C 11.8 °F /  -11.2 °C 30.22 in /  1023.2 hPa NNW 6.4 mph /  10.3 km/h 12.7 mph /  20.4 km/h 57 % 0.00 in /  0 mm
02:17 24.8 °F /  -4 °C 11.3 °F /  -11.5 °C 30.22 in /  1023.2 hPa NNW 7.7 mph /  12.4 km/h 10.0 mph /  16.1 km/h 56 % 0.00 in /  0 mm
02:22 24.7 °F /  -4.1 °C 11.2 °F /  -11.6 °C 30.21 in /  1022.9 hPa NW 7.5 mph /  12.1 km/h 11.5 mph /  18.5 km/h 56 % 0.00 in /  0 mm
02:27 24.6 °F /  -4.1 °C 11.1 °F /  -11.6 °C 30.21 in /  1022.9 hPa NW 8.0 mph /  12.9 km/h 13.0 mph /  20.9 km/h 56 % 0.00 in /  0 mm
02:33 24.6 °F /  -4.1 °C 11.5 °F /  -11.4 °C 30.21 in /  1022.9 hPa WNW 5.0 mph /  8 km/h 17.3 mph /  27.8 km/h 57 % 0.00 in /  0 mm
02:38 24.5 °F /  -4.2 °C 11.0 °F /  -11.7 °C 30.21 in /  1022.9 hPa NW 7.1 mph /  11.4 km/h 16.1 mph /  25.9 km/h 56 % 0.00 in /  0 mm
02:43 24.5 °F /  -4.2 °C 11.0 °F /  -11.7 °C 30.22 in /  1023.2 hPa NW 7.7 mph /  12.4 km/h 16.1 mph /  25.9 km/h 56 % 0.00 in /  0 mm
02:48 24.5 °F /  -4.2 °C 11.0 °F /  -11.7 °C 30.22 in /  1023.2 hPa SW 9.4 mph /  15.1 km/h 17.3 mph /  27.8 km/h 56 % 0.00 in /  0 mm
02:53 24.4 °F /  -4.2 °C 10.9 °F /  -11.7 °C 30.22 in /  1023.2 hPa WNW 6.8 mph /  10.9 km/h 11.5 mph /  18.5 km/h 56 % 0.00 in /  0 mm
02:58 24.4 °F /  -4.2 °C 11.3 °F /  -11.5 °C 30.22 in /  1023.2 hPa WNW 6.9 mph /  11.1 km/h 11.5 mph /  18.5 km/h 57 % 0.00 in /  0 mm
03:03 24.3 °F /  -4.3 °C 10.4 °F /  -12 °C 30.22 in /  1023.2 hPa NW 5.4 mph /  8.7 km/h 9.2 mph /  14.8 km/h 55 % 0.00 in /  0 mm
03:08 24.2 °F /  -4.3 °C 10.7 °F /  -11.8 °C 30.22 in /  1023.2 hPa West 6.5 mph /  10.5 km/h 19.0 mph /  30.6 km/h 56 % 0.00 in /  0 mm
03:13 24.1 °F /  -4.4 °C 10.6 °F /  -11.9 °C 30.22 in /  1023.2 hPa WNW 6.3 mph /  10.1 km/h 11.5 mph /  18.5 km/h 56 % 0.00 in /  0 mm
03:23 24.0 °F /  -4.4 °C 11.3 °F /  -11.5 °C 30.22 in /  1023.2 hPa West 7.3 mph /  11.7 km/h 16.0 mph /  25.7 km/h 58 % 0.00 in /  0 mm
03:28 24.0 °F /  -4.4 °C 10.6 °F /  -11.9 °C 30.23 in /  1023.6 hPa WNW 9.7 mph /  15.6 km/h 17.3 mph /  27.8 km/h 56 % 0.00 in /  0 mm
03:33 23.9 °F /  -4.5 °C 10.9 °F /  -11.7 °C 30.23 in /  1023.6 hPa WNW 6.5 mph /  10.5 km/h 15.0 mph /  24.1 km/h 57 % 0.00 in /  0 mm
03:38 23.8 °F /  -4.6 °C 10.4 °F /  -12 °C 30.23 in /  1023.6 hPa WNW 9.3 mph /  15 km/h 17.0 mph /  27.4 km/h 56 % 0.00 in /  0 mm
03:43 23.7 °F /  -4.6 °C 10.3 °F /  -12.1 °C 30.23 in /  1023.6 hPa NW 8.8 mph /  14.2 km/h 18.4 mph /  29.6 km/h 56 % 0.00 in /  0 mm
03:48 23.7 °F /  -4.6 °C 11.1 °F /  -11.6 °C 30.23 in /  1023.6 hPa NW 5.0 mph /  8 km/h 11.5 mph /  18.5 km/h 58 % 0.00 in /  0 mm
03:53 23.6 °F /  -4.7 °C 11.0 °F /  -11.7 °C 30.23 in /  1023.6 hPa NW 9.2 mph /  14.8 km/h 12.7 mph /  20.4 km/h 58 % 0.00 in /  0 mm
03:58 23.6 °F /  -4.7 °C 11.4 °F /  -11.4 °C 30.24 in /  1023.9 hPa NW 8.6 mph /  13.8 km/h 16.1 mph /  25.9 km/h 59 % 0.00 in /  0 mm
04:03 23.6 °F /  -4.7 °C 10.6 °F /  -11.9 °C 30.24 in /  1023.9 hPa WNW 10.9 mph /  17.5 km/h 17.3 mph /  27.8 km/h 57 % 0.00 in /  0 mm
04:08 23.5 °F /  -4.7 °C 11.3 °F /  -11.5 °C 30.25 in /  1024.3 hPa WNW 6.5 mph /  10.5 km/h 11.5 mph /  18.5 km/h 59 % 0.00 in /  0 mm
04:13 23.5 °F /  -4.7 °C 11.3 °F /  -11.5 °C 30.25 in /  1024.3 hPa NW 9.8 mph /  15.8 km/h 11.5 mph /  18.5 km/h 59 % 0.00 in /  0 mm
04:18 23.5 °F /  -4.7 °C 11.3 °F /  -11.5 °C 30.25 in /  1024.3 hPa NW 5.9 mph /  9.5 km/h 14.0 mph /  22.5 km/h 59 % 0.00 in /  0 mm
04:23 23.5 °F /  -4.7 °C 11.6 °F /  -11.3 °C 30.25 in /  1024.3 hPa NW 6.7 mph /  10.8 km/h 10.4 mph /  16.7 km/h 60 % 0.00 in /  0 mm
04:28 23.5 °F /  -4.7 °C 11.3 °F /  -11.5 °C 30.25 in /  1024.3 hPa West 6.0 mph /  9.7 km/h 15.0 mph /  24.1 km/h 59 % 0.00 in /  0 mm
04:33 23.5 °F /  -4.7 °C 11.2 °F /  -11.6 °C 30.25 in /  1024.3 hPa WNW 6.0 mph /  9.7 km/h 14.0 mph /  22.5 km/h 59 % 0.00 in /  0 mm
04:38 23.4 °F /  -4.8 °C 11.2 °F /  -11.6 °C 30.25 in /  1024.3 hPa NW 9.2 mph /  14.8 km/h 13.8 mph /  22.2 km/h 59 % 0.00 in /  0 mm
04:43 23.4 °F /  -4.8 °C 11.2 °F /  -11.6 °C 30.26 in /  1024.6 hPa WNW 9.0 mph /  14.5 km/h 20.0 mph /  32.2 km/h 59 % 0.00 in /  0 mm
04:48 23.4 °F /  -4.8 °C 11.5 °F /  -11.4 °C 30.26 in /  1024.6 hPa WNW 10.0 mph /  16.1 km/h 16.0 mph /  25.7 km/h 60 % 0.00 in /  0 mm
04:53 23.4 °F /  -4.8 °C 11.2 °F /  -11.6 °C 30.26 in /  1024.6 hPa West 9.0 mph /  14.5 km/h 17.0 mph /  27.4 km/h 59 % 0.00 in /  0 mm
04:58 23.4 °F /  -4.8 °C 11.2 °F /  -11.6 °C 30.26 in /  1024.6 hPa WNW 6.8 mph /  10.9 km/h 12.0 mph /  19.3 km/h 59 % 0.00 in /  0 mm
05:03 23.3 °F /  -4.8 °C 10.7 °F /  -11.8 °C 30.27 in /  1024.9 hPa WNW 6.0 mph /  9.7 km/h 14.0 mph /  22.5 km/h 58 % 0.00 in /  0 mm
05:08 23.3 °F /  -4.8 °C 11.1 °F /  -11.6 °C 30.27 in /  1024.9 hPa WNW 8.0 mph /  12.9 km/h 15.0 mph /  24.1 km/h 59 % 0.00 in /  0 mm
05:13 23.2 °F /  -4.9 °C 11.0 °F /  -11.7 °C 30.27 in /  1024.9 hPa WNW 5.0 mph /  8 km/h 15.0 mph /  24.1 km/h 59 % 0.00 in /  0 mm
05:18 23.2 °F /  -4.9 °C 11.7 °F /  -11.3 °C 30.27 in /  1024.9 hPa West 6.1 mph /  9.8 km/h 8.1 mph /  13 km/h 61 % 0.00 in /  0 mm
05:23 23.1 °F /  -4.9 °C 11.3 °F /  -11.5 °C 30.27 in /  1024.9 hPa WNW 5.0 mph /  8 km/h 10.0 mph /  16.1 km/h 60 % 0.00 in /  0 mm
05:28 23.1 °F /  -4.9 °C 11.6 °F /  -11.3 °C 30.27 in /  1024.9 hPa WNW 8.0 mph /  12.9 km/h 15.0 mph /  24.1 km/h 61 % 0.00 in /  0 mm
05:33 23.1 °F /  -4.9 °C 11.6 °F /  -11.3 °C 30.28 in /  1025.3 hPa West 8.0 mph /  12.9 km/h 20.0 mph /  32.2 km/h 61 % 0.00 in /  0 mm
05:38 23.1 °F /  -4.9 °C 11.3 °F /  -11.5 °C 30.27 in /  1024.9 hPa WNW 7.0 mph /  11.3 km/h 16.0 mph /  25.7 km/h 60 % 0.00 in /  0 mm
05:43 23.1 °F /  -4.9 °C 11.3 °F /  -11.5 °C 30.28 in /  1025.3 hPa WNW 5.0 mph /  8 km/h 17.0 mph /  27.4 km/h 60 % 0.00 in /  0 mm
05:48 23.1 °F /  -4.9 °C 11.3 °F /  -11.5 °C 30.28 in /  1025.3 hPa WNW 10.0 mph /  16.1 km/h 20.0 mph /  32.2 km/h 60 % 0.00 in /  0 mm
05:53 23.1 °F /  -4.9 °C 11.3 °F /  -11.5 °C 30.29 in /  1025.6 hPa WSW 5.8 mph /  9.3 km/h 15.0 mph /  24.1 km/h 60 % 0.00 in /  0 mm
05:58 23.0 °F /  -5 °C 11.2 °F /  -11.6 °C 30.28 in /  1025.3 hPa West 5.7 mph /  9.2 km/h 11.5 mph /  18.5 km/h 60 % 0.00 in /  0 mm
06:03 23.0 °F /  -5 °C 11.2 °F /  -11.6 °C 30.28 in /  1025.3 hPa West 6.0 mph /  9.7 km/h 12.0 mph /  19.3 km/h 60 % 0.00 in /  0 mm
06:08 22.9 °F /  -5.1 °C 11.4 °F /  -11.4 °C 30.28 in /  1025.3 hPa West 6.0 mph /  9.7 km/h 11.0 mph /  17.7 km/h 61 % 0.00 in /  0 mm
06:13 22.9 °F /  -5.1 °C 11.1 °F /  -11.6 °C 30.29 in /  1025.6 hPa WSW 5.7 mph /  9.2 km/h 11.0 mph /  17.7 km/h 60 % 0.00 in /  0 mm
06:18 22.8 °F /  -5.1 °C 11.3 °F /  -11.5 °C 30.29 in /  1025.6 hPa West 9.0 mph /  14.5 km/h 16.0 mph /  25.7 km/h 61 % 0.00 in /  0 mm
06:23 22.8 °F /  -5.1 °C 11.3 °F /  -11.5 °C 30.29 in /  1025.6 hPa WNW 8.0 mph /  12.9 km/h 16.0 mph /  25.7 km/h 61 % 0.00 in /  0 mm
06:28 22.8 °F /  -5.1 °C 11.3 °F /  -11.5 °C 30.30 in /  1026 hPa West 6.0 mph /  9.7 km/h 14.0 mph /  22.5 km/h 61 % 0.00 in /  0 mm
06:33 22.8 °F /  -5.1 °C 11.3 °F /  -11.5 °C 30.30 in /  1026 hPa SW 4.4 mph /  7.1 km/h 10.4 mph /  16.7 km/h 61 % 0.00 in /  0 mm
06:38 22.8 °F /  -5.1 °C 11.4 °F /  -11.4 °C 30.30 in /  1026 hPa WNW 8.0 mph /  12.9 km/h 20.0 mph /  32.2 km/h 61 % 0.00 in /  0 mm
06:43 22.9 °F /  -5.1 °C 11.8 °F /  -11.2 °C 30.30 in /  1026 hPa WNW 6.0 mph /  9.7 km/h 14.0 mph /  22.5 km/h 62 % 0.00 in /  0 mm
06:48 22.9 °F /  -5.1 °C 11.8 °F /  -11.2 °C 30.31 in /  1026.3 hPa WNW 7.0 mph /  11.3 km/h 13.0 mph /  20.9 km/h 62 % 0.00 in /  0 mm
06:53 22.9 °F /  -5.1 °C 11.8 °F /  -11.2 °C 30.30 in /  1026 hPa WNW 7.0 mph /  11.3 km/h 7.0 mph /  11.3 km/h 62 % 0.00 in /  0 mm
06:58 22.9 °F /  -5.1 °C 11.8 °F /  -11.2 °C 30.31 in /  1026.3 hPa WSW 4.1 mph /  6.6 km/h 9.2 mph /  14.8 km/h 62 % 0.00 in /  0 mm
07:03 22.9 °F /  -5.1 °C 11.8 °F /  -11.2 °C 30.31 in /  1026.3 hPa NNW 7.3 mph /  11.7 km/h 14.0 mph /  22.5 km/h 62 % 0.00 in /  0 mm
07:08 22.9 °F /  -5.1 °C 12.2 °F /  -11 °C 30.31 in /  1026.3 hPa WNW 7.9 mph /  12.7 km/h 10.0 mph /  16.1 km/h 63 % 0.00 in /  0 mm
07:14 22.9 °F /  -5.1 °C 11.8 °F /  -11.2 °C 30.32 in /  1026.6 hPa WNW 7.0 mph /  11.3 km/h 14.0 mph /  22.5 km/h 62 % 0.00 in /  0 mm
07:19 23.0 °F /  -5 °C 12.3 °F /  -10.9 °C 30.32 in /  1026.6 hPa WSW 8.8 mph /  14.2 km/h 13.8 mph /  22.2 km/h 63 % 0.00 in /  0 mm
07:24 23.1 °F /  -4.9 °C 12.0 °F /  -11.1 °C 30.32 in /  1026.6 hPa WNW 7.5 mph /  12.1 km/h 12.7 mph /  20.4 km/h 62 % 0.00 in /  0 mm
07:29 23.1 °F /  -4.9 °C 12.4 °F /  -10.9 °C 30.31 in /  1026.3 hPa West 5.0 mph /  8 km/h 13.8 mph /  22.2 km/h 63 % 0.00 in /  0 mm
07:34 23.2 °F /  -4.9 °C 12.1 °F /  -11.1 °C 30.31 in /  1026.3 hPa WNW 4.4 mph /  7.1 km/h 8.1 mph /  13 km/h 62 % 0.00 in /  0 mm
07:39 23.2 °F /  -4.9 °C 12.1 °F /  -11.1 °C 30.32 in /  1026.6 hPa WSW 4.5 mph /  7.2 km/h 10.4 mph /  16.7 km/h 62 % 0.00 in /  0 mm
07:44 23.3 °F /  -4.8 °C 12.2 °F /  -11 °C 30.32 in /  1026.6 hPa West 8.6 mph /  13.8 km/h 11.5 mph /  18.5 km/h 62 % 0.00 in /  0 mm
07:49 23.4 °F /  -4.8 °C 12.3 °F /  -10.9 °C 30.32 in /  1026.6 hPa West 7.9 mph /  12.7 km/h 11.5 mph /  18.5 km/h 62 % 0.00 in /  0 mm
07:54 23.4 °F /  -4.8 °C 12.3 °F /  -10.9 °C 30.32 in /  1026.6 hPa NW 5.7 mph /  9.2 km/h 10.4 mph /  16.7 km/h 62 % 0.00 in /  0 mm
07:59 23.5 °F /  -4.7 °C 12.4 °F /  -10.9 °C 30.32 in /  1026.6 hPa WNW 3.8 mph /  6.1 km/h 8.1 mph /  13 km/h 62 % 0.00 in /  0 mm
08:04 23.6 °F /  -4.7 °C 12.8 °F /  -10.7 °C 30.33 in /  1027 hPa West 6.9 mph /  11.1 km/h 15.0 mph /  24.1 km/h 63 % 0.00 in /  0 mm
08:09 23.7 °F /  -4.6 °C 12.9 °F /  -10.6 °C 30.32 in /  1026.6 hPa West 5.3 mph /  8.5 km/h 12.0 mph /  19.3 km/h 63 % 0.00 in /  0 mm
08:14 23.9 °F /  -4.5 °C 13.1 °F /  -10.5 °C 30.32 in /  1026.6 hPa NW 5.4 mph /  8.7 km/h 11.5 mph /  18.5 km/h 63 % 0.00 in /  0 mm
08:19 24.1 °F /  -4.4 °C 12.9 °F /  -10.6 °C 30.33 in /  1027 hPa WNW 7.7 mph /  12.4 km/h 15.0 mph /  24.1 km/h 62 % 0.00 in /  0 mm
08:24 24.3 °F /  -4.3 °C 13.1 °F /  -10.5 °C 30.33 in /  1027 hPa WNW 7.8 mph /  12.6 km/h 8.1 mph /  13 km/h 62 % 0.00 in /  0 mm
08:29 24.5 °F /  -4.2 °C 13.7 °F /  -10.2 °C 30.33 in /  1027 hPa West 5.7 mph /  9.2 km/h 14.0 mph /  22.5 km/h 63 % 0.00 in /  0 mm
08:34 24.7 °F /  -4.1 °C 13.5 °F /  -10.3 °C 30.34 in /  1027.3 hPa NW 8.4 mph /  13.5 km/h 16.1 mph /  25.9 km/h 62 % 0.00 in /  0 mm
08:39 24.8 °F /  -4 °C 13.6 °F /  -10.2 °C 30.34 in /  1027.3 hPa WSW 11.3 mph /  18.2 km/h 18.4 mph /  29.6 km/h 62 % 0.00 in /  0 mm
08:44 24.9 °F /  -3.9 °C 13.3 °F /  -10.4 °C 30.34 in /  1027.3 hPa WNW 7.8 mph /  12.6 km/h 15.0 mph /  24.1 km/h 61 % 0.00 in /  0 mm
08:49 25.1 °F /  -3.8 °C 13.2 °F /  -10.4 °C 30.34 in /  1027.3 hPa West 7.4 mph /  11.9 km/h 19.6 mph /  31.5 km/h 60 % 0.00 in /  0 mm
08:54 25.4 °F /  -3.7 °C 13.8 °F /  -10.1 °C 30.34 in /  1027.3 hPa West 5.2 mph /  8.4 km/h 11.5 mph /  18.5 km/h 61 % 0.00 in /  0 mm
08:59 25.6 °F /  -3.6 °C 13.6 °F /  -10.2 °C 30.34 in /  1027.3 hPa NW 6.2 mph /  10 km/h 11.5 mph /  18.5 km/h 60 % 0.00 in /  0 mm
09:04 26.0 °F /  -3.3 °C 14.0 °F /  -10 °C 30.34 in /  1027.3 hPa West 4.0 mph /  6.4 km/h 8.1 mph /  13 km/h 60 % 0.00 in /  0 mm
09:09 26.2 °F /  -3.2 °C 13.4 °F /  -10.3 °C 30.34 in /  1027.3 hPa NNW 5.9 mph /  9.5 km/h 12.7 mph /  20.4 km/h 58 % 0.00 in /  0 mm
09:15 26.3 °F /  -3.2 °C 13.9 °F /  -10.1 °C 30.34 in /  1027.3 hPa West 4.0 mph /  6.4 km/h 10.4 mph /  16.7 km/h 59 % 0.00 in /  0 mm
09:20 26.6 °F /  -3 °C 13.8 °F /  -10.1 °C 30.34 in /  1027.3 hPa WSW 12.3 mph /  19.8 km/h 18.4 mph /  29.6 km/h 58 % 0.00 in /  0 mm
09:25 26.6 °F /  -3 °C 13.4 °F /  -10.3 °C 30.35 in /  1027.7 hPa NW 8.7 mph /  14 km/h 17.3 mph /  27.8 km/h 57 % 0.00 in /  0 mm
09:30 26.6 °F /  -3 °C 13.4 °F /  -10.3 °C 30.34 in /  1027.3 hPa WNW 5.2 mph /  8.4 km/h 15.0 mph /  24.1 km/h 57 % 0.00 in /  0 mm
09:35 26.7 °F /  -2.9 °C 13.5 °F /  -10.3 °C 30.34 in /  1027.3 hPa NW 6.0 mph /  9.7 km/h 10.4 mph /  16.7 km/h 57 % 0.00 in /  0 mm
09:40 26.9 °F /  -2.8 °C 13.7 °F /  -10.2 °C 30.34 in /  1027.3 hPa WSW 3.8 mph /  6.1 km/h 7.0 mph /  11.3 km/h 57 % 0.00 in /  0 mm
09:45 27.0 °F /  -2.8 °C 13.4 °F /  -10.3 °C 30.34 in /  1027.3 hPa WNW 8.9 mph /  14.3 km/h 16.1 mph /  25.9 km/h 56 % 0.00 in /  0 mm
09:50 27.3 °F /  -2.6 °C 13.7 °F /  -10.2 °C 30.34 in /  1027.3 hPa SW 3.9 mph /  6.3 km/h 11.0 mph /  17.7 km/h 56 % 0.00 in /  0 mm
09:55 27.7 °F /  -2.4 °C 14.0 °F /  -10 °C 30.34 in /  1027.3 hPa WSW 7.3 mph /  11.7 km/h 12.7 mph /  20.4 km/h 56 % 0.00 in /  0 mm
10:00 28.1 °F /  -2.2 °C 14.0 °F /  -10 °C 30.35 in /  1027.7 hPa WSW 5.1 mph /  8.2 km/h 16.1 mph /  25.9 km/h 55 % 0.00 in /  0 mm
10:05 28.3 °F /  -2.1 °C 14.2 °F /  -9.9 °C 30.35 in /  1027.7 hPa West 9.6 mph /  15.4 km/h 15.0 mph /  24.1 km/h 55 % 0.00 in /  0 mm
10:10 28.5 °F /  -1.9 °C 13.9 °F /  -10.1 °C 30.34 in /  1027.3 hPa NW 7.7 mph /  12.4 km/h 15.0 mph /  24.1 km/h 54 % 0.00 in /  0 mm
10:15 28.5 °F /  -1.9 °C 13.9 °F /  -10.1 °C 30.34 in /  1027.3 hPa WNW 6.2 mph /  10 km/h 11.5 mph /  18.5 km/h 54 % 0.00 in /  0 mm
10:20 28.7 °F /  -1.8 °C 14.1 °F /  -9.9 °C 30.34 in /  1027.3 hPa WSW 4.4 mph /  7.1 km/h 6.9 mph /  11.1 km/h 54 % 0.00 in /  0 mm
10:25 29.2 °F /  -1.6 °C 14.6 °F /  -9.7 °C 30.34 in /  1027.3 hPa WNW 7.4 mph /  11.9 km/h 18.0 mph /  29 km/h 54 % 0.00 in /  0 mm
10:30 29.2 °F /  -1.6 °C 14.2 °F /  -9.9 °C 30.34 in /  1027.3 hPa WNW 3.4 mph /  5.5 km/h 8.1 mph /  13 km/h 53 % 0.00 in /  0 mm
10:35 29.2 °F /  -1.6 °C 13.7 °F /  -10.2 °C 30.34 in /  1027.3 hPa WSW 8.8 mph /  14.2 km/h 15.0 mph /  24.1 km/h 52 % 0.00 in /  0 mm
10:40 29.4 °F /  -1.4 °C 13.9 °F /  -10.1 °C 30.34 in /  1027.3 hPa WSW 5.9 mph /  9.5 km/h 16.1 mph /  25.9 km/h 52 % 0.00 in /  0 mm
10:45 29.7 °F /  -1.3 °C 14.6 °F /  -9.7 °C 30.34 in /  1027.3 hPa WNW 6.8 mph /  10.9 km/h 11.5 mph /  18.5 km/h 53 % 0.00 in /  0 mm
10:50 30.0 °F /  -1.1 °C 14.9 °F /  -9.5 °C 30.34 in /  1027.3 hPa WSW 5.5 mph /  8.9 km/h 9.0 mph /  14.5 km/h 53 % 0.00 in /  0 mm
10:55 30.2 °F /  -1 °C 14.2 °F /  -9.9 °C 30.34 in /  1027.3 hPa SW 6.7 mph /  10.8 km/h 12.0 mph /  19.3 km/h 51 % 0.00 in /  0 mm
11:01 30.3 °F /  -0.9 °C 13.9 °F /  -10.1 °C 30.34 in /  1027.3 hPa WNW 10.3 mph /  16.6 km/h 12.7 mph /  20.4 km/h 50 % 0.00 in /  0 mm
11:06 30.2 °F /  -1 °C 14.2 °F /  -9.9 °C 30.34 in /  1027.3 hPa West 4.6 mph /  7.4 km/h 9.2 mph /  14.8 km/h 51 % 0.00 in /  0 mm
11:11 30.4 °F /  -0.9 °C 14.4 °F /  -9.8 °C 30.34 in /  1027.3 hPa West 5.8 mph /  9.3 km/h 11.5 mph /  18.5 km/h 51 % 0.00 in /  0 mm
11:16 30.4 °F /  -0.9 °C 13.5 °F /  -10.3 °C 30.34 in /  1027.3 hPa West 5.5 mph /  8.9 km/h 11.5 mph /  18.5 km/h 49 % 0.00 in /  0 mm
11:21 30.4 °F /  -0.9 °C 13.5 °F /  -10.3 °C 30.34 in /  1027.3 hPa NW 5.7 mph /  9.2 km/h 11.5 mph /  18.5 km/h 49 % 0.00 in /  0 mm
11:26 30.3 °F /  -0.9 °C 13.4 °F /  -10.3 °C 30.33 in /  1027 hPa West 7.2 mph /  11.6 km/h 11.5 mph /  18.5 km/h 49 % 0.00 in /  0 mm
11:31 30.5 °F /  -0.8 °C 14.5 °F /  -9.7 °C 30.33 in /  1027 hPa West 4.7 mph /  7.6 km/h 9.2 mph /  14.8 km/h 51 % 0.00 in /  0 mm
11:36 30.8 °F /  -0.7 °C 14.8 °F /  -9.6 °C 30.33 in /  1027 hPa NW 6.9 mph /  11.1 km/h 10.4 mph /  16.7 km/h 51 % 0.00 in /  0 mm
11:41 30.9 °F /  -0.6 °C 14.4 °F /  -9.8 °C 30.33 in /  1027 hPa West 6.9 mph /  11.1 km/h 11.0 mph /  17.7 km/h 50 % 0.00 in /  0 mm
11:46 31.0 °F /  -0.6 °C 14.5 °F /  -9.7 °C 30.32 in /  1026.6 hPa WNW 6.8 mph /  10.9 km/h 10.4 mph /  16.7 km/h 50 % 0.00 in /  0 mm
11:51 30.8 °F /  -0.7 °C 13.9 °F /  -10.1 °C 30.32 in /  1026.6 hPa West 8.8 mph /  14.2 km/h 16.1 mph /  25.9 km/h 49 % 0.00 in /  0 mm
11:56 30.6 °F /  -0.8 °C 13.2 °F /  -10.4 °C 30.32 in /  1026.6 hPa NW 5.5 mph /  8.9 km/h 11.5 mph /  18.5 km/h 48 % 0.00 in /  0 mm
12:01 30.6 °F /  -0.8 °C 13.7 °F /  -10.2 °C 30.32 in /  1026.6 hPa NW 4.9 mph /  7.9 km/h 10.4 mph /  16.7 km/h 49 % 0.00 in /  0 mm
12:02 30.5 °F /  -0.8 °C 13.6 °F /  -10.2 °C 30.32 in /  1026.6 hPa WSW 6.0 mph /  9.7 km/h 8.0 mph /  12.9 km/h 49 % 0.00 in /  0 mm
12:07 30.6 °F /  -0.8 °C 14.1 °F /  -9.9 °C 30.31 in /  1026.3 hPa SW 6.0 mph /  9.7 km/h 7.0 mph /  11.3 km/h 50 % 0.00 in /  0 mm
12:12 30.8 °F /  -0.7 °C 13.9 °F /  -10.1 °C 30.31 in /  1026.3 hPa WNW 9.0 mph /  14.5 km/h 13.0 mph /  20.9 km/h 49 % 0.00 in /  0 mm
12:18 30.9 °F /  -0.6 °C 14.0 °F /  -10 °C 30.31 in /  1026.3 hPa WSW 6.7 mph /  10.8 km/h 11.5 mph /  18.5 km/h 49 % 0.00 in /  0 mm
12:23 31.0 °F /  -0.6 °C 14.0 °F /  -10 °C 30.31 in /  1026.3 hPa WNW 4.0 mph /  6.4 km/h 9.2 mph /  14.8 km/h 49 % 0.00 in /  0 mm
12:28 31.1 °F /  -0.5 °C 13.2 °F /  -10.4 °C 30.31 in /  1026.3 hPa WSW 5.4 mph /  8.7 km/h 11.5 mph /  18.5 km/h 47 % 0.00 in /  0 mm
12:33 31.4 °F /  -0.3 °C 13.9 °F /  -10.1 °C 30.31 in /  1026.3 hPa WNW 5.0 mph /  8 km/h 11.5 mph /  18.5 km/h 48 % 0.00 in /  0 mm
12:38 31.6 °F /  -0.2 °C 14.6 °F /  -9.7 °C 30.30 in /  1026 hPa West 6.2 mph /  10 km/h 13.8 mph /  22.2 km/h 49 % 0.00 in /  0 mm
12:43 32.0 °F /  0 °C 15.0 °F /  -9.4 °C 30.31 in /  1026.3 hPa West 7.0 mph /  11.3 km/h 11.5 mph /  18.5 km/h 49 % 0.00 in /  0 mm
12:48 32.1 °F /  0.1 °C 14.6 °F /  -9.7 °C 30.30 in /  1026 hPa WNW 4.7 mph /  7.6 km/h 9.2 mph /  14.8 km/h 48 % 0.00 in /  0 mm
12:53 32.2 °F /  0.1 °C 14.7 °F /  -9.6 °C 30.30 in /  1026 hPa SW 7.2 mph /  11.6 km/h 13.8 mph /  22.2 km/h 48 % 0.00 in /  0 mm
12:58 32.4 °F /  0.2 °C 14.4 °F /  -9.8 °C 30.30 in /  1026 hPa WSW 7.7 mph /  12.4 km/h 11.5 mph /  18.5 km/h 47 % 0.00 in /  0 mm
13:03 32.3 °F /  0.2 °C 13.8 °F /  -10.1 °C 30.30 in /  1026 hPa West 8.3 mph /  13.4 km/h 13.0 mph /  20.9 km/h 46 % 0.00 in /  0 mm
13:08 32.5 °F /  0.3 °C 14.5 °F /  -9.7 °C 30.29 in /  1025.6 hPa SSW 6.0 mph /  9.7 km/h 10.4 mph /  16.7 km/h 47 % 0.00 in /  0 mm
13:13 32.7 °F /  0.4 °C 14.2 °F /  -9.9 °C 30.29 in /  1025.6 hPa SW 7.1 mph /  11.4 km/h 11.5 mph /  18.5 km/h 46 % 0.00 in /  0 mm
13:18 33.0 °F /  0.6 °C 14.4 °F /  -9.8 °C 30.29 in /  1025.6 hPa SW 6.9 mph /  11.1 km/h 11.5 mph /  18.5 km/h 46 % 0.00 in /  0 mm
13:23 33.3 °F /  0.7 °C 14.7 °F /  -9.6 °C 30.29 in /  1025.6 hPa WSW 4.2 mph /  6.8 km/h 8.1 mph /  13 km/h 46 % 0.00 in /  0 mm
13:28 33.7 °F /  0.9 °C 15.1 °F /  -9.4 °C 30.29 in /  1025.6 hPa West 5.3 mph /  8.5 km/h 6.9 mph /  11.1 km/h 46 % 0.00 in /  0 mm
13:33 33.9 °F /  1.1 °C 14.8 °F /  -9.6 °C 30.27 in /  1024.9 hPa WNW 5.7 mph /  9.2 km/h 8.1 mph /  13 km/h 45 % 0.00 in /  0 mm
13:38 33.8 °F /  1 °C 14.2 °F /  -9.9 °C 30.27 in /  1024.9 hPa West 7.0 mph /  11.3 km/h 10.4 mph /  16.7 km/h 44 % 0.00 in /  0 mm
13:43 33.7 °F /  0.9 °C 14.1 °F /  -9.9 °C 30.28 in /  1025.3 hPa NW 4.4 mph /  7.1 km/h 9.2 mph /  14.8 km/h 44 % 0.00 in /  0 mm
13:48 33.7 °F /  0.9 °C 13.5 °F /  -10.3 °C 30.27 in /  1024.9 hPa West 2.9 mph /  4.7 km/h 9.2 mph /  14.8 km/h 43 % 0.00 in /  0 mm
13:53 33.7 °F /  0.9 °C 13.5 °F /  -10.3 °C 30.27 in /  1024.9 hPa WSW 4.1 mph /  6.6 km/h 11.5 mph /  18.5 km/h 43 % 0.00 in /  0 mm
13:58 33.5 °F /  0.8 °C 13.9 °F /  -10.1 °C 30.27 in /  1024.9 hPa SSW 2.7 mph /  4.3 km/h 11.5 mph /  18.5 km/h 44 % 0.00 in /  0 mm
14:03 33.7 °F /  0.9 °C 14.0 °F /  -10 °C 30.27 in /  1024.9 hPa WSW 8.0 mph /  12.9 km/h 14.0 mph /  22.5 km/h 44 % 0.00 in /  0 mm
14:08 33.7 °F /  0.9 °C 14.1 °F /  -9.9 °C 30.27 in /  1024.9 hPa WSW 3.0 mph /  4.8 km/h 12.0 mph /  19.3 km/h 44 % 0.00 in /  0 mm
14:13 33.7 °F /  0.9 °C 14.1 °F /  -9.9 °C 30.26 in /  1024.6 hPa WSW 5.0 mph /  8 km/h 9.0 mph /  14.5 km/h 44 % 0.00 in /  0 mm
14:18 33.8 °F /  1 °C 14.2 °F /  -9.9 °C 30.26 in /  1024.6 hPa SW 4.5 mph /  7.2 km/h 6.0 mph /  9.7 km/h 44 % 0.00 in /  0 mm
14:23 33.9 °F /  1.1 °C 13.2 °F /  -10.4 °C 30.26 in /  1024.6 hPa WSW 3.0 mph /  4.8 km/h 12.0 mph /  19.3 km/h 42 % 0.00 in /  0 mm
14:28 33.9 °F /  1.1 °C 13.7 °F /  -10.2 °C 30.26 in /  1024.6 hPa WSW 3.0 mph /  4.8 km/h 12.0 mph /  19.3 km/h 43 % 0.00 in /  0 mm
14:33 33.9 °F /  1.1 °C 13.2 °F /  -10.4 °C 30.26 in /  1024.6 hPa WSW 3.0 mph /  4.8 km/h 12.0 mph /  19.3 km/h 42 % 0.00 in /  0 mm
14:38 33.7 °F /  0.9 °C 13.0 °F /  -10.6 °C 30.26 in /  1024.6 hPa West 4.9 mph /  7.9 km/h 10.4 mph /  16.7 km/h 42 % 0.00 in /  0 mm
14:43 33.5 °F /  0.8 °C 12.8 °F /  -10.7 °C 30.26 in /  1024.6 hPa WSW 6.0 mph /  9.7 km/h 13.0 mph /  20.9 km/h 42 % 0.00 in /  0 mm
14:48 33.4 °F /  0.8 °C 13.3 °F /  -10.4 °C 30.26 in /  1024.6 hPa SW 5.0 mph /  8 km/h 10.0 mph /  16.1 km/h 43 % 0.00 in /  0 mm
14:53 33.4 °F /  0.8 °C 13.2 °F /  -10.4 °C 30.26 in /  1024.6 hPa SW 6.0 mph /  9.7 km/h 13.0 mph /  20.9 km/h 43 % 0.00 in /  0 mm
14:58 33.2 °F /  0.7 °C 12.6 °F /  -10.8 °C 30.26 in /  1024.6 hPa SW 5.5 mph /  8.9 km/h 12.7 mph /  20.4 km/h 42 % 0.00 in /  0 mm
15:03 33.2 °F /  0.7 °C 12.5 °F /  -10.8 °C 30.26 in /  1024.6 hPa WSW 6.0 mph /  9.7 km/h 13.0 mph /  20.9 km/h 42 % 0.00 in /  0 mm
15:08 33.1 °F /  0.6 °C 13.0 °F /  -10.6 °C 30.27 in /  1024.9 hPa WSW 6.0 mph /  9.7 km/h 10.0 mph /  16.1 km/h 43 % 0.00 in /  0 mm
15:13 33.2 °F /  0.7 °C 13.1 °F /  -10.5 °C 30.27 in /  1024.9 hPa WSW 7.0 mph /  11.3 km/h 13.0 mph /  20.9 km/h 43 % 0.00 in /  0 mm
15:18 33.2 °F /  0.7 °C 12.6 °F /  -10.8 °C 30.27 in /  1024.9 hPa West 7.4 mph /  11.9 km/h 13.0 mph /  20.9 km/h 42 % 0.00 in /  0 mm
15:23 33.2 °F /  0.7 °C 12.6 °F /  -10.8 °C 30.27 in /  1024.9 hPa WSW 6.0 mph /  9.7 km/h 14.0 mph /  22.5 km/h 42 % 0.00 in /  0 mm
15:28 33.2 °F /  0.7 °C 13.1 °F /  -10.5 °C 30.27 in /  1024.9 hPa SW 6.0 mph /  9.7 km/h 12.0 mph /  19.3 km/h 43 % 0.00 in /  0 mm
15:33 33.2 °F /  0.7 °C 12.6 °F /  -10.8 °C 30.26 in /  1024.6 hPa WSW 7.0 mph /  11.3 km/h 13.0 mph /  20.9 km/h 42 % 0.00 in /  0 mm
15:35 33.2 °F /  0.7 °C 13.1 °F /  -10.5 °C 30.26 in /  1024.6 hPa WSW 5.4 mph /  8.7 km/h 10.0 mph /  16.1 km/h 43 % 0.00 in /  0 mm
15:40 33.3 °F /  0.7 °C 13.2 °F /  -10.4 °C 30.26 in /  1024.6 hPa SSW 3.9 mph /  6.3 km/h 15.0 mph /  24.1 km/h 43 % 0.00 in /  0 mm
15:45 33.3 °F /  0.7 °C 12.6 °F /  -10.8 °C 30.26 in /  1024.6 hPa SW 4.5 mph /  7.2 km/h 13.8 mph /  22.2 km/h 42 % 0.00 in /  0 mm
15:50 33.4 °F /  0.8 °C 12.7 °F /  -10.7 °C 30.26 in /  1024.6 hPa SW 7.5 mph /  12.1 km/h 10.0 mph /  16.1 km/h 42 % 0.00 in /  0 mm
15:55 33.4 °F /  0.8 °C 12.7 °F /  -10.7 °C 30.26 in /  1024.6 hPa WSW 5.2 mph /  8.4 km/h 9.2 mph /  14.8 km/h 42 % 0.00 in /  0 mm
16:01 33.4 °F /  0.8 °C 12.7 °F /  -10.7 °C 30.26 in /  1024.6 hPa West 8.4 mph /  13.5 km/h 12.0 mph /  19.3 km/h 42 % 0.00 in /  0 mm
16:06 33.5 °F /  0.8 °C 12.3 °F /  -10.9 °C 30.26 in /  1024.6 hPa WSW 8.4 mph /  13.5 km/h 11.5 mph /  18.5 km/h 41 % 0.00 in /  0 mm
16:11 33.5 °F /  0.8 °C 12.3 °F /  -10.9 °C 30.26 in /  1024.6 hPa SSW 3.8 mph /  6.1 km/h 11.5 mph /  18.5 km/h 41 % 0.00 in /  0 mm
16:16 33.5 °F /  0.8 °C 12.8 °F /  -10.7 °C 30.25 in /  1024.3 hPa WSW 7.4 mph /  11.9 km/h 11.5 mph /  18.5 km/h 42 % 0.00 in /  0 mm
16:21 33.4 °F /  0.8 °C 12.7 °F /  -10.7 °C 30.25 in /  1024.3 hPa SW 4.1 mph /  6.6 km/h 11.5 mph /  18.5 km/h 42 % 0.00 in /  0 mm
16:26 33.4 °F /  0.8 °C 12.7 °F /  -10.7 °C 30.25 in /  1024.3 hPa SW 5.2 mph /  8.4 km/h 9.2 mph /  14.8 km/h 42 % 0.00 in /  0 mm
16:31 33.3 °F /  0.7 °C 12.6 °F /  -10.8 °C 30.26 in /  1024.6 hPa WSW 5.0 mph /  8 km/h 9.0 mph /  14.5 km/h 42 % 0.00 in /  0 mm
16:33 33.3 °F /  0.7 °C 12.6 °F /  -10.8 °C 30.25 in /  1024.3 hPa SW 3.3 mph /  5.3 km/h 11.5 mph /  18.5 km/h 42 % 0.00 in /  0 mm
16:38 33.2 °F /  0.7 °C 12.6 °F /  -10.8 °C 30.26 in /  1024.6 hPa SW 6.6 mph /  10.6 km/h 11.5 mph /  18.5 km/h 42 % 0.00 in /  0 mm
16:43 33.1 °F /  0.6 °C 12.5 °F /  -10.8 °C 30.26 in /  1024.6 hPa WSW 7.6 mph /  12.2 km/h 10.4 mph /  16.7 km/h 42 % 0.00 in /  0 mm
16:48 33.0 °F /  0.6 °C 12.4 °F /  -10.9 °C 30.26 in /  1024.6 hPa WSW 4.9 mph /  7.9 km/h 9.0 mph /  14.5 km/h 42 % 0.00 in /  0 mm
16:53 33.0 °F /  0.6 °C 11.8 °F /  -11.2 °C 30.26 in /  1024.6 hPa WSW 5.9 mph /  9.5 km/h 10.4 mph /  16.7 km/h 41 % 0.00 in /  0 mm
16:58 32.9 °F /  0.5 °C 12.3 °F /  -10.9 °C 30.27 in /  1024.9 hPa SW 4.3 mph /  6.9 km/h 10.4 mph /  16.7 km/h 42 % 0.00 in /  0 mm
17:03 32.8 °F /  0.4 °C 12.2 °F /  -11 °C 30.27 in /  1024.9 hPa WSW 3.0 mph /  4.8 km/h 10.0 mph /  16.1 km/h 42 % 0.00 in /  0 mm
17:08 32.7 °F /  0.4 °C 12.6 °F /  -10.8 °C 30.27 in /  1024.9 hPa WSW 2.0 mph /  3.2 km/h 8.0 mph /  12.9 km/h 43 % 0.00 in /  0 mm
17:13 32.6 °F /  0.3 °C 12.5 °F /  -10.8 °C 30.26 in /  1024.6 hPa WSW 3.0 mph /  4.8 km/h 8.0 mph /  12.9 km/h 43 % 0.00 in /  0 mm
17:18 32.5 °F /  0.3 °C 12.4 °F /  -10.9 °C 30.26 in /  1024.6 hPa WSW 3.0 mph /  4.8 km/h 7.0 mph /  11.3 km/h 43 % 0.00 in /  0 mm
17:23 32.4 °F /  0.2 °C 12.4 °F /  -10.9 °C 30.26 in /  1024.6 hPa WSW 3.0 mph /  4.8 km/h 6.0 mph /  9.7 km/h 43 % 0.00 in /  0 mm
17:28 32.3 °F /  0.2 °C 12.8 °F /  -10.7 °C 30.27 in /  1024.9 hPa WSW 7.0 mph /  11.3 km/h 12.0 mph /  19.3 km/h 44 % 0.00 in /  0 mm
17:33 32.4 °F /  0.2 °C 12.9 °F /  -10.6 °C 30.26 in /  1024.6 hPa SW 1.0 mph /  1.6 km/h 12.0 mph /  19.3 km/h 44 % 0.00 in /  0 mm
17:38 32.4 °F /  0.2 °C 13.4 °F /  -10.3 °C 30.27 in /  1024.9 hPa WSW 3.0 mph /  4.8 km/h 8.0 mph /  12.9 km/h 45 % 0.00 in /  0 mm
17:43 32.3 °F /  0.2 °C 13.3 °F /  -10.4 °C 30.27 in /  1024.9 hPa WSW 2.0 mph /  3.2 km/h 9.0 mph /  14.5 km/h 45 % 0.00 in /  0 mm
17:48 32.3 °F /  0.2 °C 13.3 °F /  -10.4 °C 30.27 in /  1024.9 hPa WSW 3.0 mph /  4.8 km/h 6.0 mph /  9.7 km/h 45 % 0.00 in /  0 mm
17:53 32.2 °F /  0.1 °C 13.2 °F /  -10.4 °C 30.27 in /  1024.9 hPa WSW 2.0 mph /  3.2 km/h 8.0 mph /  12.9 km/h 45 % 0.00 in /  0 mm
17:58 32.2 °F /  0.1 °C 13.2 °F /  -10.4 °C 30.27 in /  1024.9 hPa SSW 3.6 mph /  5.8 km/h 8.1 mph /  13 km/h 45 % 0.00 in /  0 mm
18:03 32.1 °F /  0.1 °C 13.1 °F /  -10.5 °C 30.26 in /  1024.6 hPa SW 3.0 mph /  4.8 km/h 8.0 mph /  12.9 km/h 45 % 0.00 in /  0 mm
18:08 32.1 °F /  0.1 °C 13.1 °F /  -10.5 °C 30.26 in /  1024.6 hPa Calm   2.0 mph /  3.2 km/h 45 % 0.00 in /  0 mm
18:13 32.0 °F /  0 °C 13.0 °F /  -10.6 °C 30.27 in /  1024.9 hPa SSW 2.0 mph /  3.2 km/h 5.0 mph /  8 km/h 45 % 0.00 in /  0 mm
18:18 31.9 °F /  -0.1 °C 12.4 °F /  -10.9 °C 30.27 in /  1024.9 hPa WSW 1.9 mph /  3.1 km/h 6.9 mph /  11.1 km/h 44 % 0.00 in /  0 mm
18:23 31.7 °F /  -0.2 °C 12.8 °F /  -10.7 °C 30.27 in /  1024.9 hPa SW 2.0 mph /  3.2 km/h 5.0 mph /  8 km/h 45 % 0.00 in /  0 mm
18:28 31.6 °F /  -0.2 °C 12.7 °F /  -10.7 °C 30.27 in /  1024.9 hPa WSW 2.0 mph /  3.2 km/h 7.0 mph /  11.3 km/h 45 % 0.00 in /  0 mm
18:33 31.4 °F /  -0.3 °C 12.0 °F /  -11.1 °C 30.26 in /  1024.6 hPa WSW 1.0 mph /  1.6 km/h 7.0 mph /  11.3 km/h 44 % 0.00 in /  0 mm
18:38 31.4 °F /  -0.3 °C 12.0 °F /  -11.1 °C 30.27 in /  1024.9 hPa WSW 1.0 mph /  1.6 km/h 3.0 mph /  4.8 km/h 44 % 0.00 in /  0 mm
18:43 31.2 °F /  -0.4 °C 12.3 °F /  -10.9 °C 30.27 in /  1024.9 hPa WSW 1.0 mph /  1.6 km/h 4.0 mph /  6.4 km/h 45 % 0.00 in /  0 mm
18:48 31.1 °F /  -0.5 °C 12.2 °F /  -11 °C 30.27 in /  1024.9 hPa SW 1.0 mph /  1.6 km/h 2.0 mph /  3.2 km/h 45 % 0.00 in /  0 mm
18:53 31.0 °F /  -0.6 °C 12.1 °F /  -11.1 °C 30.27 in /  1024.9 hPa Calm   2.0 mph /  3.2 km/h 45 % 0.00 in /  0 mm
18:58 30.9 °F /  -0.6 °C 12.5 °F /  -10.8 °C 30.27 in /  1024.9 hPa South 0.8 mph /  1.3 km/h 2.3 mph /  3.7 km/h 46 % 0.00 in /  0 mm
19:03 30.7 °F /  -0.7 °C 12.3 °F /  -10.9 °C 30.27 in /  1024.9 hPa SW 2.0 mph /  3.2 km/h 5.0 mph /  8 km/h 46 % 0.00 in /  0 mm
19:08 30.5 °F /  -0.8 °C 11.7 °F /  -11.3 °C 30.27 in /  1024.9 hPa WSW 2.0 mph /  3.2 km/h 4.0 mph /  6.4 km/h 45 % 0.00 in /  0 mm
19:13 30.4 °F /  -0.9 °C 12.1 °F /  -11.1 °C 30.27 in /  1024.9 hPa WSW 2.0 mph /  3.2 km/h 4.0 mph /  6.4 km/h 46 % 0.00 in /  0 mm
19:18 30.2 °F /  -1 °C 11.9 °F /  -11.2 °C 30.27 in /  1024.9 hPa SW 3.0 mph /  4.8 km/h 5.0 mph /  8 km/h 46 % 0.00 in /  0 mm
19:23 30.1 °F /  -1.1 °C 11.8 °F /  -11.2 °C 30.26 in /  1024.6 hPa SW 3.0 mph /  4.8 km/h 7.0 mph /  11.3 km/h 46 % 0.00 in /  0 mm
19:28 30.0 °F /  -1.1 °C 11.7 °F /  -11.3 °C 30.26 in /  1024.6 hPa SW 2.0 mph /  3.2 km/h 4.0 mph /  6.4 km/h 46 % 0.00 in /  0 mm
19:33 30.0 °F /  -1.1 °C 11.7 °F /  -11.3 °C 30.27 in /  1024.9 hPa SW 3.4 mph /  5.5 km/h 4.6 mph /  7.4 km/h 46 % 0.00 in /  0 mm
19:38 30.0 °F /  -1.1 °C 12.2 °F /  -11 °C 30.27 in /  1024.9 hPa SW 3.0 mph /  4.8 km/h 6.0 mph /  9.7 km/h 47 % 0.00 in /  0 mm
19:43 30.0 °F /  -1.1 °C 12.2 °F /  -11 °C 30.27 in /  1024.9 hPa WSW 3.0 mph /  4.8 km/h 7.0 mph /  11.3 km/h 47 % 0.00 in /  0 mm
19:48 30.1 °F /  -1.1 °C 11.7 °F /  -11.3 °C 30.27 in /  1024.9 hPa WSW 2.0 mph /  3.2 km/h 5.0 mph /  8 km/h 46 % 0.00 in /  0 mm
19:53 30.1 °F /  -1.1 °C 12.3 °F /  -10.9 °C 30.27 in /  1024.9 hPa SSW 4.9 mph /  7.9 km/h 5.0 mph /  8 km/h 47 % 0.00 in /  0 mm
19:58 30.1 °F /  -1.1 °C 12.3 °F /  -10.9 °C 30.27 in /  1024.9 hPa SSW 2.3 mph /  3.7 km/h 3.5 mph /  5.6 km/h 47 % 0.00 in /  0 mm
20:03 30.1 °F /  -1.1 °C 12.3 °F /  -10.9 °C 30.27 in /  1024.9 hPa SW 3.0 mph /  4.8 km/h 4.0 mph /  6.4 km/h 47 % 0.00 in /  0 mm
20:09 30.2 °F /  -1 °C 12.4 °F /  -10.9 °C 30.26 in /  1024.6 hPa SW 1.6 mph /  2.6 km/h 3.5 mph /  5.6 km/h 47 % 0.00 in /  0 mm
20:14 30.2 °F /  -1 °C 12.4 °F /  -10.9 °C 30.26 in /  1024.6 hPa SW 3.9 mph /  6.3 km/h 6.9 mph /  11.1 km/h 47 % 0.00 in /  0 mm
20:19 30.2 °F /  -1 °C 12.4 °F /  -10.9 °C 30.26 in /  1024.6 hPa SW 2.5 mph /  4 km/h 4.6 mph /  7.4 km/h 47 % 0.00 in /  0 mm
20:24 30.2 °F /  -1 °C 12.4 °F /  -10.9 °C 30.26 in /  1024.6 hPa SSW 2.8 mph /  4.5 km/h 5.8 mph /  9.3 km/h 47 % 0.00 in /  0 mm
20:29 30.2 °F /  -1 °C 12.4 °F /  -10.9 °C 30.26 in /  1024.6 hPa WSW 1.5 mph /  2.4 km/h 3.5 mph /  5.6 km/h 47 % 0.00 in /  0 mm
20:34 30.2 °F /  -1 °C 12.8 °F /  -10.7 °C 30.26 in /  1024.6 hPa WSW 2.4 mph /  3.9 km/h 4.0 mph /  6.4 km/h 48 % 0.00 in /  0 mm
20:39 30.1 °F /  -1.1 °C 12.7 °F /  -10.7 °C 30.26 in /  1024.6 hPa SW 4.4 mph /  7.1 km/h 8.0 mph /  12.9 km/h 48 % 0.00 in /  0 mm
20:44 30.1 °F /  -1.1 °C 12.7 °F /  -10.7 °C 30.26 in /  1024.6 hPa SW 2.7 mph /  4.3 km/h 4.6 mph /  7.4 km/h 48 % 0.00 in /  0 mm
20:49 30.1 °F /  -1.1 °C 12.7 °F /  -10.7 °C 30.26 in /  1024.6 hPa SW 1.4 mph /  2.3 km/h 3.5 mph /  5.6 km/h 48 % 0.00 in /  0 mm
20:54 30.0 °F /  -1.1 °C 12.7 °F /  -10.7 °C 30.26 in /  1024.6 hPa SSW 2.5 mph /  4 km/h 3.5 mph /  5.6 km/h 48 % 0.00 in /  0 mm
20:59 30.0 °F /  -1.1 °C 12.7 °F /  -10.7 °C 30.26 in /  1024.6 hPa SW 3.1 mph /  5 km/h 5.0 mph /  8 km/h 48 % 0.00 in /  0 mm
21:04 29.9 °F /  -1.2 °C 12.6 °F /  -10.8 °C 30.27 in /  1024.9 hPa WSW 2.1 mph /  3.4 km/h 3.5 mph /  5.6 km/h 48 % 0.00 in /  0 mm
21:09 29.8 °F /  -1.2 °C 12.5 °F /  -10.8 °C 30.27 in /  1024.9 hPa SW 2.1 mph /  3.4 km/h 5.8 mph /  9.3 km/h 48 % 0.00 in /  0 mm
21:14 29.8 °F /  -1.2 °C 12.5 °F /  -10.8 °C 30.27 in /  1024.9 hPa WSW 1.8 mph /  2.9 km/h 3.5 mph /  5.6 km/h 48 % 0.00 in /  0 mm
21:19 29.7 °F /  -1.3 °C 12.4 °F /  -10.9 °C 30.27 in /  1024.9 hPa SW 1.6 mph /  2.6 km/h 3.5 mph /  5.6 km/h 48 % 0.00 in /  0 mm
21:24 29.6 °F /  -1.3 °C 12.8 °F /  -10.7 °C 30.27 in /  1024.9 hPa SW 0.9 mph /  1.4 km/h 3.5 mph /  5.6 km/h 49 % 0.00 in /  0 mm
21:29 29.6 °F /  -1.3 °C 12.8 °F /  -10.7 °C 30.27 in /  1024.9 hPa SW 1.2 mph /  1.9 km/h 3.5 mph /  5.6 km/h 49 % 0.00 in /  0 mm
21:34 29.5 °F /  -1.4 °C 12.7 °F /  -10.7 °C 30.27 in /  1024.9 hPa WSW 0.9 mph /  1.4 km/h 3.5 mph /  5.6 km/h 49 % 0.00 in /  0 mm
21:39 29.4 °F /  -1.4 °C 12.6 °F /  -10.8 °C 30.27 in /  1024.9 hPa SSW 1.6 mph /  2.6 km/h 5.8 mph /  9.3 km/h 49 % 0.00 in /  0 mm
21:44 29.4 °F /  -1.4 °C 13.0 °F /  -10.6 °C 30.27 in /  1024.9 hPa Calm   1.2 mph /  1.9 km/h 50 % 0.00 in /  0 mm
21:49 29.3 °F /  -1.5 °C 12.9 °F /  -10.6 °C 30.27 in /  1024.9 hPa Calm   1.2 mph /  1.9 km/h 50 % 0.00 in /  0 mm
21:54 29.2 °F /  -1.6 °C 12.8 °F /  -10.7 °C 30.27 in /  1024.9 hPa SSW 0.9 mph /  1.4 km/h 2.0 mph /  3.2 km/h 50 % 0.00 in /  0 mm
21:59 29.1 °F /  -1.6 °C 13.2 °F /  -10.4 °C 30.27 in /  1024.9 hPa SSW 0.3 mph /  0.5 km/h 2.0 mph /  3.2 km/h 51 % 0.00 in /  0 mm
22:05 29.1 °F /  -1.6 °C 13.2 °F /  -10.4 °C 30.26 in /  1024.6 hPa SSW 0.7 mph /  1.1 km/h 3.5 mph /  5.6 km/h 51 % 0.00 in /  0 mm
22:10 29.0 °F /  -1.7 °C 13.1 °F /  -10.5 °C 30.26 in /  1024.6 hPa SW 0.5 mph /  0.8 km/h 2.3 mph /  3.7 km/h 51 % 0.00 in /  0 mm
22:15 29.0 °F /  -1.7 °C 13.6 °F /  -10.2 °C 30.26 in /  1024.6 hPa SW 0.8 mph /  1.3 km/h 2.3 mph /  3.7 km/h 52 % 0.00 in /  0 mm
22:20 28.9 °F /  -1.7 °C 13.5 °F /  -10.3 °C 30.26 in /  1024.6 hPa SW 1.0 mph /  1.6 km/h 2.3 mph /  3.7 km/h 52 % 0.00 in /  0 mm
22:25 28.9 °F /  -1.7 °C 13.9 °F /  -10.1 °C 30.26 in /  1024.6 hPa WSW 3.6 mph /  5.8 km/h 10.4 mph /  16.7 km/h 53 % 0.00 in /  0 mm
22:30 29.0 °F /  -1.7 °C 14.0 °F /  -10 °C 30.26 in /  1024.6 hPa SW 1.0 mph /  1.6 km/h 3.5 mph /  5.6 km/h 53 % 0.00 in /  0 mm
22:35 29.2 °F /  -1.6 °C 14.6 °F /  -9.7 °C 30.26 in /  1024.6 hPa WSW 1.6 mph /  2.6 km/h 6.9 mph /  11.1 km/h 54 % 0.00 in /  0 mm
22:40 29.4 °F /  -1.4 °C 15.2 °F /  -9.3 °C 30.26 in /  1024.6 hPa WSW 5.0 mph /  8 km/h 9.2 mph /  14.8 km/h 55 % 0.00 in /  0 mm
22:45 29.7 °F /  -1.3 °C 15.5 °F /  -9.2 °C 30.25 in /  1024.3 hPa WNW 1.6 mph /  2.6 km/h 4.0 mph /  6.4 km/h 55 % 0.00 in /  0 mm
22:50 30.2 °F /  -1 °C 15.5 °F /  -9.2 °C 30.25 in /  1024.3 hPa WSW 2.6 mph /  4.2 km/h 3.5 mph /  5.6 km/h 54 % 0.00 in /  0 mm
22:55 30.6 °F /  -0.8 °C 15.5 °F /  -9.2 °C 30.25 in /  1024.3 hPa WSW 2.5 mph /  4 km/h 4.6 mph /  7.4 km/h 53 % 0.00 in /  0 mm
23:00 30.8 °F /  -0.7 °C 15.7 °F /  -9.1 °C 30.25 in /  1024.3 hPa WSW 3.9 mph /  6.3 km/h 8.1 mph /  13 km/h 53 % 0.00 in /  0 mm
23:05 31.1 °F /  -0.5 °C 15.5 °F /  -9.2 °C 30.25 in /  1024.3 hPa SW 3.5 mph /  5.6 km/h 6.9 mph /  11.1 km/h 52 % 0.00 in /  0 mm
23:10 31.4 °F /  -0.3 °C 15.8 °F /  -9 °C 30.25 in /  1024.3 hPa WSW 2.3 mph /  3.7 km/h 3.5 mph /  5.6 km/h 52 % 0.00 in /  0 mm
23:15 31.4 °F /  -0.3 °C 16.2 °F /  -8.8 °C 30.25 in /  1024.3 hPa WSW 3.3 mph /  5.3 km/h 8.1 mph /  13 km/h 53 % 0.00 in /  0 mm
23:20 31.5 °F /  -0.3 °C 15.9 °F /  -8.9 °C 30.25 in /  1024.3 hPa West 3.7 mph /  6 km/h 9.2 mph /  14.8 km/h 52 % 0.00 in /  0 mm
23:25 31.6 °F /  -0.2 °C 15.5 °F /  -9.2 °C 30.25 in /  1024.3 hPa WSW 3.8 mph /  6.1 km/h 8.1 mph /  13 km/h 51 % 0.00 in /  0 mm
23:30 31.8 °F /  -0.1 °C 15.7 °F /  -9.1 °C 30.25 in /  1024.3 hPa WSW 2.8 mph /  4.5 km/h 8.1 mph /  13 km/h 51 % 0.00 in /  0 mm
23:35 31.9 °F /  -0.1 °C 15.8 °F /  -9 °C 30.25 in /  1024.3 hPa WSW 0.6 mph /  1 km/h 3.5 mph /  5.6 km/h 51 % 0.00 in /  0 mm
23:40 31.9 °F /  -0.1 °C 15.8 °F /  -9 °C 30.24 in /  1023.9 hPa SSW 1.5 mph /  2.4 km/h 3.5 mph /  5.6 km/h 51 % 0.00 in /  0 mm
23:45 31.9 °F /  -0.1 °C 15.8 °F /  -9 °C 30.24 in /  1023.9 hPa Calm   1.2 mph /  1.9 km/h 51 % 0.00 in /  0 mm
23:50 31.9 °F /  -0.1 °C 15.3 °F /  -9.3 °C 30.23 in /  1023.6 hPa WSW 1.2 mph /  1.9 km/h 4.6 mph /  7.4 km/h 50 % 0.00 in /  0 mm
23:55 31.9 °F /  -0.1 °C 15.3 °F /  -9.3 °C 30.24 in /  1023.9 hPa SW 2.0 mph /  3.2 km/h 4.0 mph /  6.4 km/h 50 % 0.00 in /  0 mm
Crab Meadow Weather
Compliments of Weather Underground - 3 mb

Script developed by  Jim McMurry - jmcmurry@mwt.net Adapted for the template by  Wim van der Kuil - Leuven-Template.eu

Recycling: Americans use 85,000,000 tons of paper a year; about 680 pounds per person.